sensor_id;sensor_type;location;lat;lon;timestamp;temperature;humidity
51841;DHT22;37888;53.246;6.658;2022-09-14T00:01:27;14.50;99.90
51841;DHT22;37888;53.246;6.658;2022-09-14T00:03:54;14.40;99.90
51841;DHT22;37888;53.246;6.658;2022-09-14T00:06:21;14.40;99.90
51841;DHT22;37888;53.246;6.658;2022-09-14T00:08:53;14.40;99.90
51841;DHT22;37888;53.246;6.658;2022-09-14T00:11:21;14.40;99.90
51841;DHT22;37888;53.246;6.658;2022-09-14T00:13:47;14.40;99.90
51841;DHT22;37888;53.246;6.658;2022-09-14T00:16:15;14.40;99.90
51841;DHT22;37888;53.246;6.658;2022-09-14T00:18:50;14.40;99.90
51841;DHT22;37888;53.246;6.658;2022-09-14T00:21:25;14.40;99.90
51841;DHT22;37888;53.246;6.658;2022-09-14T00:23:51;14.40;99.90
51841;DHT22;37888;53.246;6.658;2022-09-14T00:26:18;14.40;99.90
51841;DHT22;37888;53.246;6.658;2022-09-14T00:28:46;14.30;99.90
51841;DHT22;37888;53.246;6.658;2022-09-14T00:31:12;14.30;99.90
51841;DHT22;37888;53.246;6.658;2022-09-14T00:33:40;14.30;99.90
51841;DHT22;37888;53.246;6.658;2022-09-14T00:36:07;14.30;99.90
51841;DHT22;37888;53.246;6.658;2022-09-14T00:38:33;14.30;99.90
51841;DHT22;37888;53.246;6.658;2022-09-14T00:41:03;14.30;99.90
51841;DHT22;37888;53.246;6.658;2022-09-14T00:43:29;14.30;99.90
51841;DHT22;37888;53.246;6.658;2022-09-14T00:45:58;14.30;99.90
51841;DHT22;37888;53.246;6.658;2022-09-14T00:48:25;14.30;99.90
51841;DHT22;37888;53.246;6.658;2022-09-14T00:50:53;14.40;99.90
51841;DHT22;37888;53.246;6.658;2022-09-14T00:53:19;14.40;99.90
51841;DHT22;37888;53.246;6.658;2022-09-14T00:55:45;14.40;99.90
51841;DHT22;37888;53.246;6.658;2022-09-14T00:58:10;14.40;99.90
51841;DHT22;37888;53.246;6.658;2022-09-14T01:00:36;14.40;99.90
51841;DHT22;37888;53.246;6.658;2022-09-14T01:03:02;14.30;99.90
51841;DHT22;37888;53.246;6.658;2022-09-14T01:05:32;14.30;99.90
51841;DHT22;37888;53.246;6.658;2022-09-14T01:13:02;14.30;99.90
51841;DHT22;37888;53.246;6.658;2022-09-14T01:18:56;14.30;99.90
51841;DHT22;37888;53.246;6.658;2022-09-14T01:21:23;14.30;99.90
51841;DHT22;37888;53.246;6.658;2022-09-14T01:24:08;14.40;99.90
51841;DHT22;37888;53.246;6.658;2022-09-14T01:26:45;14.40;99.90
51841;DHT22;37888;53.246;6.658;2022-09-14T01:29:14;14.40;99.90
51841;DHT22;37888;53.246;6.658;2022-09-14T01:39:30;14.60;99.90
51841;DHT22;37888;53.246;6.658;2022-09-14T01:41:57;14.50;99.90
51841;DHT22;37888;53.246;6.658;2022-09-14T01:44:24;14.60;99.90
51841;DHT22;37888;53.246;6.658;2022-09-14T01:46:56;14.60;99.90
51841;DHT22;37888;53.246;6.658;2022-09-14T01:49:28;14.60;99.90
51841;DHT22;37888;53.246;6.658;2022-09-14T01:52:13;14.60;99.90
51841;DHT22;37888;53.246;6.658;2022-09-14T01:57:08;14.70;99.90
51841;DHT22;37888;53.246;6.658;2022-09-14T01:59:38;14.60;99.90
51841;DHT22;37888;53.246;6.658;2022-09-14T02:08:10;14.70;99.90
51841;DHT22;37888;53.246;6.658;2022-09-14T02:10:36;14.70;99.90
51841;DHT22;37888;53.246;6.658;2022-09-14T02:13:02;14.20;99.90
51841;DHT22;37888;53.246;6.658;2022-09-14T02:15:28;14.70;99.90
51841;DHT22;37888;53.246;6.658;2022-09-14T02:17:59;14.70;99.90
51841;DHT22;37888;53.246;6.658;2022-09-14T02:20:36;14.80;99.90
51841;DHT22;37888;53.246;6.658;2022-09-14T02:23:04;14.70;99.90
51841;DHT22;37888;53.246;6.658;2022-09-14T02:25:30;14.80;99.90
51841;DHT22;37888;53.246;6.658;2022-09-14T02:27:56;14.80;99.90
51841;DHT22;37888;53.246;6.658;2022-09-14T02:30:22;14.80;99.90
51841;DHT22;37888;53.246;6.658;2022-09-14T02:32:58;14.80;99.90
51841;DHT22;37888;53.246;6.658;2022-09-14T02:35:31;14.80;99.90
51841;DHT22;37888;53.246;6.658;2022-09-14T02:38:18;14.80;99.90
51841;DHT22;37888;53.246;6.658;2022-09-14T02:40:52;14.80;99.90
51841;DHT22;37888;53.246;6.658;2022-09-14T02:43:25;14.80;99.90
51841;DHT22;37888;53.246;6.658;2022-09-14T02:46:04;14.80;99.90
51841;DHT22;37888;53.246;6.658;2022-09-14T02:51:07;14.80;99.90
51841;DHT22;37888;53.246;6.658;2022-09-14T02:56:18;14.80;99.90
51841;DHT22;37888;53.246;6.658;2022-09-14T02:58:45;14.80;99.90
51841;DHT22;37888;53.246;6.658;2022-09-14T03:01:12;14.80;99.90
51841;DHT22;37888;53.246;6.658;2022-09-14T03:03:38;14.80;99.90
51841;DHT22;37888;53.246;6.658;2022-09-14T03:06:05;14.80;99.90
51841;DHT22;37888;53.246;6.658;2022-09-14T03:08:31;14.80;99.90
51841;DHT22;37888;53.246;6.658;2022-09-14T03:10:57;14.80;99.90
51841;DHT22;37888;53.246;6.658;2022-09-14T03:13:24;14.80;99.90
51841;DHT22;37888;53.246;6.658;2022-09-14T03:15:50;14.80;99.90
51841;DHT22;37888;53.246;6.658;2022-09-14T03:18:16;14.80;99.90
51841;DHT22;37888;53.246;6.658;2022-09-14T03:20:42;14.80;99.90
51841;DHT22;37888;53.246;6.658;2022-09-14T03:23:08;14.80;99.90
51841;DHT22;37888;53.246;6.658;2022-09-14T03:25:40;14.80;99.90
51841;DHT22;37888;53.246;6.658;2022-09-14T03:28:06;14.80;99.90
51841;DHT22;37888;53.246;6.658;2022-09-14T03:30:32;14.90;99.90
51841;DHT22;37888;53.246;6.658;2022-09-14T03:32:59;14.80;99.90
51841;DHT22;37888;53.246;6.658;2022-09-14T03:35:26;14.80;99.90
51841;DHT22;37888;53.246;6.658;2022-09-14T03:37:52;14.90;99.90
51841;DHT22;37888;53.246;6.658;2022-09-14T03:40:18;14.90;99.90
51841;DHT22;37888;53.246;6.658;2022-09-14T03:42:44;14.90;99.90
51841;DHT22;37888;53.246;6.658;2022-09-14T03:45:11;14.80;99.90
51841;DHT22;37888;53.246;6.658;2022-09-14T03:47:37;14.80;99.90
51841;DHT22;37888;53.246;6.658;2022-09-14T03:50:03;14.80;99.90
51841;DHT22;37888;53.246;6.658;2022-09-14T03:52:29;14.90;99.90
51841;DHT22;37888;53.246;6.658;2022-09-14T03:54:54;14.90;99.90
51841;DHT22;37888;53.246;6.658;2022-09-14T03:57:20;14.90;99.90
51841;DHT22;37888;53.246;6.658;2022-09-14T03:59:46;14.90;99.90
51841;DHT22;37888;53.246;6.658;2022-09-14T04:02:12;14.90;99.90
51841;DHT22;37888;53.246;6.658;2022-09-14T04:04:38;14.90;99.90
51841;DHT22;37888;53.246;6.658;2022-09-14T04:07:04;14.90;99.90
51841;DHT22;37888;53.246;6.658;2022-09-14T04:09:30;14.90;99.90
51841;DHT22;37888;53.246;6.658;2022-09-14T04:11:56;14.90;99.90
51841;DHT22;37888;53.246;6.658;2022-09-14T04:14:22;14.90;99.90
51841;DHT22;37888;53.246;6.658;2022-09-14T04:16:48;14.90;99.90
51841;DHT22;37888;53.246;6.658;2022-09-14T04:19:14;14.90;99.90
51841;DHT22;37888;53.246;6.658;2022-09-14T04:21:40;14.90;99.90
51841;DHT22;37888;53.246;6.658;2022-09-14T04:24:06;14.90;99.90
51841;DHT22;37888;53.246;6.658;2022-09-14T04:26:34;14.90;99.90
51841;DHT22;37888;53.246;6.658;2022-09-14T04:29:00;14.80;99.90
51841;DHT22;37888;53.246;6.658;2022-09-14T04:31:25;14.90;99.90
51841;DHT22;37888;53.246;6.658;2022-09-14T04:33:53;14.80;99.90
51841;DHT22;37888;53.246;6.658;2022-09-14T04:36:20;14.80;99.90
51841;DHT22;37888;53.246;6.658;2022-09-14T04:38:47;14.80;99.90
51841;DHT22;37888;53.246;6.658;2022-09-14T04:41:14;14.80;99.90
51841;DHT22;37888;53.246;6.658;2022-09-14T04:43:41;14.80;99.90
51841;DHT22;37888;53.246;6.658;2022-09-14T04:46:12;14.80;99.90
51841;DHT22;37888;53.246;6.658;2022-09-14T04:48:38;14.80;99.90
51841;DHT22;37888;53.246;6.658;2022-09-14T04:51:06;14.80;99.90
51841;DHT22;37888;53.246;6.658;2022-09-14T04:53:32;14.80;99.90
51841;DHT22;37888;53.246;6.658;2022-09-14T04:55:59;14.80;99.90
51841;DHT22;37888;53.246;6.658;2022-09-14T04:58:25;14.80;99.90
51841;DHT22;37888;53.246;6.658;2022-09-14T05:00:53;14.90;99.90
51841;DHT22;37888;53.246;6.658;2022-09-14T05:03:20;14.80;99.90
51841;DHT22;37888;53.246;6.658;2022-09-14T05:05:46;14.90;99.90
51841;DHT22;37888;53.246;6.658;2022-09-14T05:08:12;14.90;99.90
51841;DHT22;37888;53.246;6.658;2022-09-14T05:10:38;14.90;99.90
51841;DHT22;37888;53.246;6.658;2022-09-14T05:13:03;14.90;99.90
51841;DHT22;37888;53.246;6.658;2022-09-14T05:15:30;14.90;99.90
51841;DHT22;37888;53.246;6.658;2022-09-14T05:17:56;14.90;99.90
51841;DHT22;37888;53.246;6.658;2022-09-14T05:20:22;14.90;99.90
51841;DHT22;37888;53.246;6.658;2022-09-14T05:22:48;14.90;99.90
51841;DHT22;37888;53.246;6.658;2022-09-14T05:25:14;14.90;99.90
51841;DHT22;37888;53.246;6.658;2022-09-14T05:27:40;14.90;99.90
51841;DHT22;37888;53.246;6.658;2022-09-14T05:30:06;14.90;99.90
51841;DHT22;37888;53.246;6.658;2022-09-14T05:32:32;14.90;99.90
51841;DHT22;37888;53.246;6.658;2022-09-14T05:34:58;14.90;99.90
51841;DHT22;37888;53.246;6.658;2022-09-14T05:37:24;14.90;99.90
51841;DHT22;37888;53.246;6.658;2022-09-14T05:39:49;14.90;99.90
51841;DHT22;37888;53.246;6.658;2022-09-14T05:42:15;14.90;99.90
51841;DHT22;37888;53.246;6.658;2022-09-14T05:44:42;14.90;99.90
51841;DHT22;37888;53.246;6.658;2022-09-14T05:47:08;14.90;99.90
51841;DHT22;37888;53.246;6.658;2022-09-14T05:49:34;15.00;99.90
51841;DHT22;37888;53.246;6.658;2022-09-14T05:52:00;15.00;99.90
51841;DHT22;37888;53.246;6.658;2022-09-14T05:54:26;15.00;99.90
51841;DHT22;37888;53.246;6.658;2022-09-14T05:56:51;15.00;99.90
51841;DHT22;37888;53.246;6.658;2022-09-14T05:59:17;15.10;99.90
51841;DHT22;37888;53.246;6.658;2022-09-14T06:01:43;15.10;99.90
51841;DHT22;37888;53.246;6.658;2022-09-14T06:04:09;15.10;99.90
51841;DHT22;37888;53.246;6.658;2022-09-14T06:06:35;15.10;99.90
51841;DHT22;37888;53.246;6.658;2022-09-14T06:09:01;15.10;99.90
51841;DHT22;37888;53.246;6.658;2022-09-14T06:11:28;15.10;99.90
51841;DHT22;37888;53.246;6.658;2022-09-14T06:13:55;15.20;99.90
51841;DHT22;37888;53.246;6.658;2022-09-14T06:16:21;15.20;99.90
51841;DHT22;37888;53.246;6.658;2022-09-14T06:18:47;15.20;99.90
51841;DHT22;37888;53.246;6.658;2022-09-14T06:21:14;15.20;99.90
51841;DHT22;37888;53.246;6.658;2022-09-14T06:23:41;15.20;99.90
51841;DHT22;37888;53.246;6.658;2022-09-14T06:26:08;15.30;99.90
51841;DHT22;37888;53.246;6.658;2022-09-14T06:28:34;15.30;99.90
51841;DHT22;37888;53.246;6.658;2022-09-14T06:31:00;15.30;99.90
51841;DHT22;37888;53.246;6.658;2022-09-14T06:33:27;15.40;99.90
51841;DHT22;37888;53.246;6.658;2022-09-14T06:35:54;15.40;99.90
51841;DHT22;37888;53.246;6.658;2022-09-14T06:38:20;15.40;99.90
51841;DHT22;37888;53.246;6.658;2022-09-14T06:40:50;15.40;99.90
51841;DHT22;37888;53.246;6.658;2022-09-14T06:43:16;15.40;99.90
51841;DHT22;37888;53.246;6.658;2022-09-14T06:45:42;15.50;99.90
51841;DHT22;37888;53.246;6.658;2022-09-14T06:48:08;15.50;99.90
51841;DHT22;37888;53.246;6.658;2022-09-14T06:50:34;15.50;99.90
51841;DHT22;37888;53.246;6.658;2022-09-14T06:53:00;15.60;99.90
51841;DHT22;37888;53.246;6.658;2022-09-14T06:55:26;15.60;99.90
51841;DHT22;37888;53.246;6.658;2022-09-14T06:57:51;15.60;99.90
51841;DHT22;37888;53.246;6.658;2022-09-14T07:00:17;15.70;99.90
51841;DHT22;37888;53.246;6.658;2022-09-14T07:02:43;15.70;99.90
51841;DHT22;37888;53.246;6.658;2022-09-14T07:05:09;15.80;99.90
51841;DHT22;37888;53.246;6.658;2022-09-14T07:07:35;15.80;99.90
51841;DHT22;37888;53.246;6.658;2022-09-14T07:10:01;15.80;99.90
51841;DHT22;37888;53.246;6.658;2022-09-14T07:12:26;15.80;99.90
51841;DHT22;37888;53.246;6.658;2022-09-14T07:14:52;15.90;99.90
51841;DHT22;37888;53.246;6.658;2022-09-14T07:17:18;15.90;99.90
51841;DHT22;37888;53.246;6.658;2022-09-14T07:19:44;15.90;99.90
51841;DHT22;37888;53.246;6.658;2022-09-14T07:22:10;15.90;99.90
51841;DHT22;37888;53.246;6.658;2022-09-14T07:24:36;16.00;99.90
51841;DHT22;37888;53.246;6.658;2022-09-14T07:27:02;16.00;99.90
51841;DHT22;37888;53.246;6.658;2022-09-14T07:29:28;16.00;99.90
51841;DHT22;37888;53.246;6.658;2022-09-14T07:31:54;16.00;99.90
51841;DHT22;37888;53.246;6.658;2022-09-14T07:34:20;16.10;99.90
51841;DHT22;37888;53.246;6.658;2022-09-14T07:36:47;16.10;99.90
51841;DHT22;37888;53.246;6.658;2022-09-14T07:39:13;16.20;99.90
51841;DHT22;37888;53.246;6.658;2022-09-14T07:41:39;16.30;99.90
51841;DHT22;37888;53.246;6.658;2022-09-14T07:44:06;16.30;99.90
51841;DHT22;37888;53.246;6.658;2022-09-14T07:46:35;16.30;99.90
51841;DHT22;37888;53.246;6.658;2022-09-14T07:49:02;16.30;99.90
51841;DHT22;37888;53.246;6.658;2022-09-14T07:51:30;16.30;99.90
51841;DHT22;37888;53.246;6.658;2022-09-14T07:53:57;16.40;99.90
51841;DHT22;37888;53.246;6.658;2022-09-14T07:56:26;16.40;99.90
51841;DHT22;37888;53.246;6.658;2022-09-14T07:58:52;16.40;99.90
51841;DHT22;37888;53.246;6.658;2022-09-14T08:01:18;16.60;99.90
51841;DHT22;37888;53.246;6.658;2022-09-14T08:03:45;16.60;99.90
51841;DHT22;37888;53.246;6.658;2022-09-14T08:06:21;16.70;99.90
51841;DHT22;37888;53.246;6.658;2022-09-14T08:08:48;16.70;99.90
51841;DHT22;37888;53.246;6.658;2022-09-14T08:11:18;16.80;99.90
51841;DHT22;37888;53.246;6.658;2022-09-14T08:13:49;16.90;99.90
51841;DHT22;37888;53.246;6.658;2022-09-14T08:16:15;17.10;99.90
51841;DHT22;37888;53.246;6.658;2022-09-14T08:18:42;17.20;99.90
51841;DHT22;37888;53.246;6.658;2022-09-14T08:21:09;17.20;99.90
51841;DHT22;37888;53.246;6.658;2022-09-14T08:23:36;17.30;99.90
51841;DHT22;37888;53.246;6.658;2022-09-14T08:26:12;17.30;99.90
51841;DHT22;37888;53.246;6.658;2022-09-14T08:31:06;17.40;99.90
51841;DHT22;37888;53.246;6.658;2022-09-14T08:33:32;17.50;99.90
51841;DHT22;37888;53.246;6.658;2022-09-14T08:35:59;17.50;99.90
51841;DHT22;37888;53.246;6.658;2022-09-14T08:38:25;17.50;99.90
51841;DHT22;37888;53.246;6.658;2022-09-14T08:40:51;17.70;99.90
51841;DHT22;37888;53.246;6.658;2022-09-14T08:43:17;17.90;99.90
51841;DHT22;37888;53.246;6.658;2022-09-14T08:45:47;18.20;99.90
51841;DHT22;37888;53.246;6.658;2022-09-14T08:48:19;18.50;99.90
51841;DHT22;37888;53.246;6.658;2022-09-14T08:50:47;18.80;99.90
51841;DHT22;37888;53.246;6.658;2022-09-14T08:53:21;18.80;99.90
51841;DHT22;37888;53.246;6.658;2022-09-14T08:55:52;18.90;99.90
51841;DHT22;37888;53.246;6.658;2022-09-14T09:11:17;19.60;99.90
51841;DHT22;37888;53.246;6.658;2022-09-14T09:13:43;19.90;99.90
51841;DHT22;37888;53.246;6.658;2022-09-14T09:18:45;20.20;99.90
51841;DHT22;37888;53.246;6.658;2022-09-14T09:23:38;19.90;99.90
51841;DHT22;37888;53.246;6.658;2022-09-14T09:26:05;19.70;99.90
51841;DHT22;37888;53.246;6.658;2022-09-14T09:31:16;19.30;99.90
51841;DHT22;37888;53.246;6.658;2022-09-14T09:33:43;19.10;99.90
51841;DHT22;37888;53.246;6.658;2022-09-14T09:36:11;19.00;99.90
51841;DHT22;37888;53.246;6.658;2022-09-14T09:38:38;18.80;99.90
51841;DHT22;37888;53.246;6.658;2022-09-14T09:41:04;18.70;99.90
51841;DHT22;37888;53.246;6.658;2022-09-14T09:43:32;18.60;99.90
51841;DHT22;37888;53.246;6.658;2022-09-14T09:48:57;18.40;99.90
51841;DHT22;37888;53.246;6.658;2022-09-14T09:51:24;18.30;99.90
51841;DHT22;37888;53.246;6.658;2022-09-14T09:54:04;18.30;99.90
51841;DHT22;37888;53.246;6.658;2022-09-14T09:56:32;18.20;99.90
51841;DHT22;37888;53.246;6.658;2022-09-14T09:59:00;18.30;99.90
51841;DHT22;37888;53.246;6.658;2022-09-14T10:01:28;18.40;99.90
51841;DHT22;37888;53.246;6.658;2022-09-14T10:04:05;18.40;99.90
51841;DHT22;37888;53.246;6.658;2022-09-14T10:06:31;18.40;99.90
51841;DHT22;37888;53.246;6.658;2022-09-14T10:09:11;18.50;99.90
51841;DHT22;37888;53.246;6.658;2022-09-14T10:11:37;18.60;99.90
51841;DHT22;37888;53.246;6.658;2022-09-14T10:14:04;18.70;99.90
51841;DHT22;37888;53.246;6.658;2022-09-14T10:16:37;18.70;99.90
51841;DHT22;37888;53.246;6.658;2022-09-14T10:19:14;18.90;99.90
51841;DHT22;37888;53.246;6.658;2022-09-14T10:24:25;19.00;99.90
51841;DHT22;37888;53.246;6.658;2022-09-14T10:26:51;19.00;99.90
51841;DHT22;37888;53.246;6.658;2022-09-14T10:29:27;19.00;99.90
51841;DHT22;37888;53.246;6.658;2022-09-14T10:32:22;19.00;99.90
51841;DHT22;37888;53.246;6.658;2022-09-14T10:37:51;19.00;99.90
51841;DHT22;37888;53.246;6.658;2022-09-14T10:45:53;19.00;99.90
51841;DHT22;37888;53.246;6.658;2022-09-14T10:48:43;19.10;99.90
51841;DHT22;37888;53.246;6.658;2022-09-14T10:51:24;19.10;99.90
51841;DHT22;37888;53.246;6.658;2022-09-14T11:04:38;19.10;99.90
51841;DHT22;37888;53.246;6.658;2022-09-14T11:07:18;19.20;99.90
51841;DHT22;37888;53.246;6.658;2022-09-14T11:12:30;19.30;99.90
51841;DHT22;37888;53.246;6.658;2022-09-14T11:25:23;19.50;99.90
51841;DHT22;37888;53.246;6.658;2022-09-14T11:27:53;19.60;99.90
51841;DHT22;37888;53.246;6.658;2022-09-14T11:30:22;19.60;99.90
51841;DHT22;37888;53.246;6.658;2022-09-14T11:32:51;19.40;99.90
51841;DHT22;37888;53.246;6.658;2022-09-14T11:35:28;19.40;99.90
51841;DHT22;37888;53.246;6.658;2022-09-14T11:38:00;19.40;99.90
51841;DHT22;37888;53.246;6.658;2022-09-14T11:40:32;19.40;99.90
51841;DHT22;37888;53.246;6.658;2022-09-14T11:43:04;19.30;99.90
51841;DHT22;37888;53.246;6.658;2022-09-14T11:46:09;19.30;99.90
51841;DHT22;37888;53.246;6.658;2022-09-14T11:48:36;19.30;99.90
51841;DHT22;37888;53.246;6.658;2022-09-14T11:51:05;19.40;99.90
51841;DHT22;37888;53.246;6.658;2022-09-14T11:53:33;19.50;99.90
51841;DHT22;37888;53.246;6.658;2022-09-14T11:55:59;19.50;99.90
51841;DHT22;37888;53.246;6.658;2022-09-14T12:01:01;19.70;99.90
51841;DHT22;37888;53.246;6.658;2022-09-14T12:03:45;19.70;99.90
51841;DHT22;37888;53.246;6.658;2022-09-14T12:09:39;19.90;99.90
51841;DHT22;37888;53.246;6.658;2022-09-14T12:11:48;19.90;99.90
51841;DHT22;37888;53.246;6.658;2022-09-14T12:14:33;20.00;99.90
51841;DHT22;37888;53.246;6.658;2022-09-14T12:19:45;20.00;99.90
51841;DHT22;37888;53.246;6.658;2022-09-14T12:25:00;20.10;99.90
51841;DHT22;37888;53.246;6.658;2022-09-14T12:27:28;20.00;99.90
51841;DHT22;37888;53.246;6.658;2022-09-14T12:29:54;20.00;99.90
51841;DHT22;37888;53.246;6.658;2022-09-14T12:32:24;19.90;99.90
51841;DHT22;37888;53.246;6.658;2022-09-14T12:35:51;19.90;99.90
51841;DHT22;37888;53.246;6.658;2022-09-14T12:37:45;19.80;99.90
51841;DHT22;37888;53.246;6.658;2022-09-14T12:40:22;19.80;99.90
51841;DHT22;37888;53.246;6.658;2022-09-14T12:42:48;19.80;99.90
51841;DHT22;37888;53.246;6.658;2022-09-14T12:47:59;19.90;99.90
51841;DHT22;37888;53.246;6.658;2022-09-14T12:50:25;19.90;99.90
51841;DHT22;37888;53.246;6.658;2022-09-14T12:53:00;19.80;99.90
51841;DHT22;37888;53.246;6.658;2022-09-14T12:55:46;19.70;99.90
51841;DHT22;37888;53.246;6.658;2022-09-14T12:58:22;19.70;99.90
51841;DHT22;37888;53.246;6.658;2022-09-14T13:01:14;19.70;99.90
51841;DHT22;37888;53.246;6.658;2022-09-14T13:06:11;19.40;99.90
51841;DHT22;37888;53.246;6.658;2022-09-14T13:08:37;19.20;99.90
51841;DHT22;37888;53.246;6.658;2022-09-14T13:11:04;19.10;99.90
51841;DHT22;37888;53.246;6.658;2022-09-14T13:13:31;19.00;99.90
51841;DHT22;37888;53.246;6.658;2022-09-14T13:15:58;19.00;99.90
51841;DHT22;37888;53.246;6.658;2022-09-14T13:18:29;18.90;99.90
51841;DHT22;37888;53.246;6.658;2022-09-14T13:20:57;18.90;99.90
51841;DHT22;37888;53.246;6.658;2022-09-14T13:23:28;18.90;99.90
51841;DHT22;37888;53.246;6.658;2022-09-14T13:25:54;18.90;99.90
51841;DHT22;37888;53.246;6.658;2022-09-14T13:28:20;18.90;99.90
51841;DHT22;37888;53.246;6.658;2022-09-14T13:30:54;18.80;99.90
51841;DHT22;37888;53.246;6.658;2022-09-14T13:33:22;18.80;99.90
51841;DHT22;37888;53.246;6.658;2022-09-14T13:35:49;18.80;99.90
51841;DHT22;37888;53.246;6.658;2022-09-14T13:38:22;18.70;99.90
51841;DHT22;37888;53.246;6.658;2022-09-14T13:40:48;18.70;99.90
51841;DHT22;37888;53.246;6.658;2022-09-14T13:43:30;18.60;99.90
51841;DHT22;37888;53.246;6.658;2022-09-14T13:45:56;18.60;99.90
51841;DHT22;37888;53.246;6.658;2022-09-14T13:48:23;18.60;99.90
51841;DHT22;37888;53.246;6.658;2022-09-14T13:50:50;18.70;99.90
51841;DHT22;37888;53.246;6.658;2022-09-14T13:53:35;18.80;99.90
51841;DHT22;37888;53.246;6.658;2022-09-14T13:58:50;19.10;99.90
51841;DHT22;37888;53.246;6.658;2022-09-14T14:02:09;19.10;99.90
51841;DHT22;37888;53.246;6.658;2022-09-14T14:04:32;19.10;99.90
51841;DHT22;37888;53.246;6.658;2022-09-14T14:07:14;19.00;99.90
51841;DHT22;37888;53.246;6.658;2022-09-14T14:09:51;19.00;99.90
51841;DHT22;37888;53.246;6.658;2022-09-14T14:12:32;19.00;99.90
51841;DHT22;37888;53.246;6.658;2022-09-14T14:15:00;19.00;99.90
51841;DHT22;37888;53.246;6.658;2022-09-14T14:17:34;19.00;99.90
51841;DHT22;37888;53.246;6.658;2022-09-14T14:25:32;18.90;99.90
51841;DHT22;37888;53.246;6.658;2022-09-14T14:27:59;18.90;99.90
51841;DHT22;37888;53.246;6.658;2022-09-14T14:30:25;18.80;99.90
51841;DHT22;37888;53.246;6.658;2022-09-14T14:32:53;18.80;99.90
51841;DHT22;37888;53.246;6.658;2022-09-14T14:35:21;18.80;99.90
51841;DHT22;37888;53.246;6.658;2022-09-14T14:37:47;18.70;99.90
51841;DHT22;37888;53.246;6.658;2022-09-14T14:40:14;18.70;99.90
51841;DHT22;37888;53.246;6.658;2022-09-14T14:42:40;18.70;99.90
51841;DHT22;37888;53.246;6.658;2022-09-14T14:45:10;18.70;99.90
51841;DHT22;37888;53.246;6.658;2022-09-14T14:47:38;18.70;99.90
51841;DHT22;37888;53.246;6.658;2022-09-14T14:50:05;18.60;99.90
51841;DHT22;37888;53.246;6.658;2022-09-14T14:52:31;18.60;99.90
51841;DHT22;37888;53.246;6.658;2022-09-14T14:54:57;18.60;99.90
51841;DHT22;37888;53.246;6.658;2022-09-14T14:57:22;18.60;99.90
51841;DHT22;37888;53.246;6.658;2022-09-14T14:59:48;18.50;99.90
51841;DHT22;37888;53.246;6.658;2022-09-14T15:02:17;18.50;99.90
51841;DHT22;37888;53.246;6.658;2022-09-14T15:04:43;18.50;99.90
51841;DHT22;37888;53.246;6.658;2022-09-14T15:07:09;18.50;99.90
51841;DHT22;37888;53.246;6.658;2022-09-14T15:09:34;18.40;99.90
51841;DHT22;37888;53.246;6.658;2022-09-14T15:12:00;18.40;99.90
51841;DHT22;37888;53.246;6.658;2022-09-14T15:14:26;18.40;99.90
51841;DHT22;37888;53.246;6.658;2022-09-14T15:16:55;18.50;99.90
51841;DHT22;37888;53.246;6.658;2022-09-14T15:19:27;18.50;99.90
51841;DHT22;37888;53.246;6.658;2022-09-14T15:21:53;18.50;99.90
51841;DHT22;37888;53.246;6.658;2022-09-14T15:24:25;18.40;99.90
51841;DHT22;37888;53.246;6.658;2022-09-14T15:26:51;18.40;99.90
51841;DHT22;37888;53.246;6.658;2022-09-14T15:29:19;18.40;99.90
51841;DHT22;37888;53.246;6.658;2022-09-14T15:31:44;18.40;99.90
51841;DHT22;37888;53.246;6.658;2022-09-14T15:34:10;18.30;99.90
51841;DHT22;37888;53.246;6.658;2022-09-14T15:36:43;18.30;99.90
51841;DHT22;37888;53.246;6.658;2022-09-14T15:39:26;18.30;99.90
51841;DHT22;37888;53.246;6.658;2022-09-14T15:41:52;18.30;99.90
51841;DHT22;37888;53.246;6.658;2022-09-14T15:44:19;18.30;99.90
51841;DHT22;37888;53.246;6.658;2022-09-14T15:46:44;18.30;99.90
51841;DHT22;37888;53.246;6.658;2022-09-14T15:49:13;18.20;99.90
51841;DHT22;37888;53.246;6.658;2022-09-14T15:51:42;18.10;99.90
51841;DHT22;37888;53.246;6.658;2022-09-14T15:54:09;18.10;99.90
51841;DHT22;37888;53.246;6.658;2022-09-14T15:56:35;18.10;99.90
51841;DHT22;37888;53.246;6.658;2022-09-14T15:59:01;18.20;99.90
51841;DHT22;37888;53.246;6.658;2022-09-14T16:01:28;18.20;99.90
51841;DHT22;37888;53.246;6.658;2022-09-14T16:04:05;18.20;99.90
51841;DHT22;37888;53.246;6.658;2022-09-14T16:06:32;18.20;99.90
51841;DHT22;37888;53.246;6.658;2022-09-14T16:09:02;18.20;99.90
51841;DHT22;37888;53.246;6.658;2022-09-14T16:11:28;18.10;99.90
51841;DHT22;37888;53.246;6.658;2022-09-14T16:13:54;18.10;99.90
51841;DHT22;37888;53.246;6.658;2022-09-14T16:16:20;18.10;99.90
51841;DHT22;37888;53.246;6.658;2022-09-14T16:18:46;18.00;99.90
51841;DHT22;37888;53.246;6.658;2022-09-14T16:21:14;18.00;99.90
51841;DHT22;37888;53.246;6.658;2022-09-14T16:23:45;18.00;99.90
51841;DHT22;37888;53.246;6.658;2022-09-14T16:26:13;18.00;99.90
51841;DHT22;37888;53.246;6.658;2022-09-14T16:28:40;17.90;99.90
51841;DHT22;37888;53.246;6.658;2022-09-14T16:31:08;17.90;99.90
51841;DHT22;37888;53.246;6.658;2022-09-14T16:33:39;17.90;99.90
51841;DHT22;37888;53.246;6.658;2022-09-14T16:36:06;17.90;99.90
51841;DHT22;37888;53.246;6.658;2022-09-14T16:38:34;17.80;99.90
51841;DHT22;37888;53.246;6.658;2022-09-14T16:41:00;17.80;99.90
51841;DHT22;37888;53.246;6.658;2022-09-14T16:43:28;17.80;99.90
51841;DHT22;37888;53.246;6.658;2022-09-14T16:46:15;17.80;99.90
51841;DHT22;37888;53.246;6.658;2022-09-14T16:48:42;17.70;99.90
51841;DHT22;37888;53.246;6.658;2022-09-14T16:51:10;17.70;99.90
51841;DHT22;37888;53.246;6.658;2022-09-14T16:53:37;17.70;99.90
51841;DHT22;37888;53.246;6.658;2022-09-14T16:56:08;17.60;99.90
51841;DHT22;37888;53.246;6.658;2022-09-14T17:01:21;17.50;99.90
51841;DHT22;37888;53.246;6.658;2022-09-14T17:03:48;17.50;99.90
51841;DHT22;37888;53.246;6.658;2022-09-14T17:06:18;17.40;99.90
51841;DHT22;37888;53.246;6.658;2022-09-14T17:08:45;17.40;99.90
51841;DHT22;37888;53.246;6.658;2022-09-14T17:11:11;17.40;99.90
51841;DHT22;37888;53.246;6.658;2022-09-14T17:13:41;17.30;99.90
51841;DHT22;37888;53.246;6.658;2022-09-14T17:16:08;17.30;99.90
51841;DHT22;37888;53.246;6.658;2022-09-14T17:18:35;17.30;99.90
51841;DHT22;37888;53.246;6.658;2022-09-14T17:21:03;17.30;99.90
51841;DHT22;37888;53.246;6.658;2022-09-14T17:23:35;17.30;99.90
51841;DHT22;37888;53.246;6.658;2022-09-14T17:26:02;17.20;99.90
51841;DHT22;37888;53.246;6.658;2022-09-14T17:28:30;17.20;99.90
51841;DHT22;37888;53.246;6.658;2022-09-14T17:30:56;17.20;99.90
51841;DHT22;37888;53.246;6.658;2022-09-14T17:33:22;16.90;99.90
51841;DHT22;37888;53.246;6.658;2022-09-14T17:35:49;17.10;99.90
51841;DHT22;37888;53.246;6.658;2022-09-14T17:38:15;17.10;99.90